Time;durP1;ratioP1;P1;durP2;ratioP2;P2;SDS_P1;SDS_P2;PMS_P1;PMS_P2;Temp;Humidity;BMP_temperature;BMP_pressure;BME280_temperature;BME280_humidity;BME280_pressure;Samples;Min_cycle;Max_cycle;Signal;HPM_P1;HPM_P2
2023/05/01 00:02:09;;;;;;;2.65;1.80;;;;;;;6.94;59.84;101694.88;15685838;28;20498;-51
2023/05/01 00:09:41;;;;;;;5.90;2.03;;;;;;;6.85;60.46;101702.00;15686132;28;20567;-49
2023/05/01 00:17:16;;;;;;;1.95;1.50;;;;;;;6.68;60.14;101695.81;15685157;28;20155;-49
2023/05/01 00:24:49;;;;;;;4.55;1.63;;;;;;;6.67;60.86;101688.78;15667746;28;20037;-50
2023/05/01 00:32:23;;;;;;;3.30;1.77;;;;;;;6.57;60.72;101688.91;15683928;28;20115;-49
2023/05/01 00:39:56;;;;;;;2.25;1.30;;;;;;;6.59;60.62;101686.09;15666014;28;20079;-49
2023/05/01 00:47:30;;;;;;;3.25;1.65;;;;;;;6.27;61.90;101674.28;15665672;28;20045;-49
2023/05/01 00:55:04;;;;;;;2.65;1.60;;;;;;;6.40;60.94;101673.84;15664584;28;20045;-47
2023/05/01 01:02:38;;;;;;;2.58;1.83;;;;;;;6.28;61.06;101672.44;15681107;28;20049;-48
2023/05/01 01:10:19;;;;;;;1.67;1.08;;;;;;;6.09;61.79;101665.50;15683227;28;20083;-49
2023/05/01 01:17:59;;;;;;;1.83;1.13;;;;;;;6.00;61.88;101669.97;15663631;28;20058;-51
2023/05/01 01:25:55;;;;;;;1.67;1.58;;;;;;;6.07;61.39;101660.34;15680744;28;20056;-49
2023/05/01 01:33:59;;;;;;;2.63;1.63;;;;;;;5.89;61.81;101654.22;15679576;28;20490;-49
2023/05/01 01:41:34;;;;;;;5.88;1.05;;;;;;;5.83;62.67;101639.69;15639695;28;20434;-52
2023/05/01 01:49:15;;;;;;;2.85;1.50;;;;;;;5.95;61.88;101645.63;15662741;28;20052;-48
2023/05/01 01:56:50;;;;;;;1.90;1.50;;;;;;;5.82;62.37;101642.50;15621057;28;20448;-51
2023/05/01 02:04:27;;;;;;;1.45;1.35;;;;;;;5.65;63.64;101630.91;15644890;28;20041;-50
2023/05/01 02:12:01;;;;;;;3.17;2.17;;;;;;;5.71;62.66;101630.28;15661945;28;20116;-49
2023/05/01 02:19:39;;;;;;;1.98;1.38;;;;;;;5.36;64.07;101623.19;15676535;28;20044;-48
2023/05/01 02:27:16;;;;;;;2.25;1.33;;;;;;;5.35;63.62;101605.56;15677133;28;20036;-51
2023/05/01 02:34:50;;;;;;;19.05;1.45;;;;;;;5.40;63.35;101586.44;15643123;28;20044;-48
2023/05/01 02:42:26;;;;;;;7.32;0.90;;;;;;;5.23;63.68;101585.53;15643400;28;20049;-50
2023/05/01 02:50:01;;;;;;;1.30;1.20;;;;;;;5.51;63.51;101573.75;15658522;28;20056;-52
2023/05/01 02:57:34;;;;;;;1.15;0.82;;;;;;;5.16;64.21;101561.31;15659592;28;20044;-48
2023/05/01 03:05:09;;;;;;;4.43;2.30;;;;;;;5.08;64.54;101556.78;15658878;28;20128;-49
2023/05/01 03:12:43;;;;;;;1.35;1.10;;;;;;;5.36;63.62;101556.63;15642346;28;20045;-50
2023/05/01 03:20:17;;;;;;;;;;;;;;;5.36;62.02;101554.84;15641531;28;20080;-50
2023/05/01 03:27:50;;;;;;;2.95;1.02;;;;;;;5.30;63.09;101546.63;15674894;28;19928;-48
2023/05/01 03:35:24;;;;;;;1.88;1.35;;;;;;;5.05;63.95;101540.28;15640246;28;20068;-47
2023/05/01 03:42:57;;;;;;;2.65;1.17;;;;;;;4.84;64.39;101537.94;15639304;28;20116;-49
2023/05/01 03:50:31;;;;;;;0.43;0.43;;;;;;;4.95;63.41;101540.38;15656304;28;20041;-50
2023/05/01 03:58:06;;;;;;;1.58;1.20;;;;;;;4.98;63.93;101548.03;15639533;28;20049;-49
2023/05/01 04:05:42;;;;;;;2.72;1.58;;;;;;;4.90;64.11;101539.19;15654830;28;20037;-49
2023/05/01 04:13:15;;;;;;;0.85;0.68;;;;;;;5.10;64.03;101530.84;15655796;28;20072;-49
2023/05/01 04:20:49;;;;;;;7.53;1.60;;;;;;;5.10;64.38;101522.03;15673088;28;20506;-49
2023/05/01 04:28:26;;;;;;;0.32;0.32;;;;;;;5.08;63.89;101481.44;15658941;28;20049;-47
2023/05/01 04:36:01;;;;;;;1.05;0.88;;;;;;;5.20;64.17;101528.09;15667283;28;20072;-50
2023/05/01 04:43:36;;;;;;;2.03;0.60;;;;;;;5.07;64.99;101527.66;15683854;28;20502;-50
2023/05/01 04:51:12;;;;;;;1.17;1.08;;;;;;;5.40;64.45;101514.56;15682599;28;20520;-51
2023/05/01 04:58:45;;;;;;;3.10;0.90;;;;;;;5.67;63.06;101511.72;15665359;28;20120;-49
2023/05/01 05:06:24;;;;;;;1.08;0.98;;;;;;;6.03;61.28;101501.75;15665351;28;20094;-51
2023/05/01 05:13:57;;;;;;;0.88;0.63;;;;;;;5.98;61.32;101509.41;15664915;28;20213;-51
2023/05/01 05:21:31;;;;;;;2.53;0.73;;;;;;;6.45;60.08;101492.84;15683396;28;20048;-50
2023/05/01 05:29:06;;;;;;;0.95;0.90;;;;;;;7.47;58.12;101486.09;15665323;28;20589;-49
2023/05/01 05:36:40;;;;;;;1.08;1.00;;;;;;;7.49;57.30;101478.75;15664207;28;20455;-48
2023/05/01 05:44:13;;;;;;;2.83;1.40;;;;;;;8.28;55.45;101474.19;15645996;28;20498;-49
2023/05/01 05:51:47;;;;;;;2.00;1.10;;;;;;;9.97;51.50;101471.03;15662476;28;20120;-50
2023/05/01 05:59:22;;;;;;;2.00;1.30;;;;;;;12.34;44.28;101477.53;15644450;28;20049;-48
2023/05/01 06:06:56;;;;;;;1.40;0.70;;;;;;;13.26;41.84;101469.50;15662028;28;20044;-52
2023/05/01 06:14:29;;;;;;;1.25;0.63;;;;;;;15.10;38.00;101467.06;15662256;28;20533;-53
2023/05/01 06:22:03;;;;;;;0.93;0.80;;;;;;;14.11;40.12;101468.59;15660873;28;20068;-50
2023/05/01 06:29:41;;;;;;;13.40;1.08;;;;;;;12.64;41.78;101461.84;15661411;28;20065;-47
2023/05/01 06:37:15;;;;;;;1.02;0.38;;;;;;;12.37;43.17;101467.19;15644506;28;20081;-49
2023/05/01 06:44:48;;;;;;;2.10;1.73;;;;;;;12.28;43.16;101462.19;15660225;28;20041;-49
2023/05/01 06:52:22;;;;;;;1.73;1.00;;;;;;;12.68;42.86;101463.94;15642200;28;20041;-51
2023/05/01 06:59:55;;;;;;;4.28;0.80;;;;;;;13.86;40.64;101446.91;15676275;28;20102;-51
2023/05/01 07:07:29;;;;;;;4.40;0.77;;;;;;;15.08;38.20;101442.97;15642128;28;20045;-50
2023/05/01 07:15:02;;;;;;;3.20;0.98;;;;;;;15.21;38.01;101432.03;15676942;28;20124;-49
2023/05/01 07:22:36;;;;;;;3.03;1.25;;;;;;;15.85;37.26;101424.41;15677223;28;20044;-48
2023/05/01 07:30:10;;;;;;;0.43;0.40;;;;;;;14.50;38.43;101427.88;15657515;28;20072;-52
2023/05/01 07:37:44;;;;;;;0.35;0.35;;;;;;;15.25;38.91;101413.47;15676582;28;20048;-48
2023/05/01 07:45:17;;;;;;;3.65;1.23;;;;;;;15.73;38.16;101408.13;15676119;28;20068;-51
2023/05/01 07:52:51;;;;;;;1.67;0.60;;;;;;;15.93;37.10;101398.91;15656643;28;20107;-50
2023/05/01 08:00:24;;;;;;;10.75;0.98;;;;;;;16.42;36.53;101378.81;15674314;28;20116;-51
2023/05/01 08:07:58;;;;;;;0.57;0.47;;;;;;;16.53;36.14;101386.13;15684791;28;20069;-49
2023/05/01 08:15:30;;;;;;;1.00;0.52;;;;;;;15.60;37.48;101372.25;15686873;28;20076;-48
2023/05/01 08:23:07;;;;;;;0.30;0.30;;;;;;;16.31;36.76;101366.03;15667596;28;20041;-54
2023/05/01 08:30:40;;;;;;;1.80;0.52;;;;;;;17.40;34.92;101371.00;15685748;28;20307;-52
2023/05/01 08:38:14;;;;;;;1.48;0.60;;;;;;;17.34;34.29;101365.44;15683708;28;20048;-52
2023/05/01 08:45:48;;;;;;;1.10;0.77;;;;;;;16.80;35.36;101350.44;15685632;28;20118;-49
2023/05/01 08:53:24;;;;;;;2.63;0.40;;;;;;;17.04;34.90;101343.13;15683253;28;20498;-49
2023/05/01 09:01:00;;;;;;;1.33;0.60;;;;;;;17.10;32.45;101336.72;15682077;28;20450;-50
2023/05/01 09:08:35;;;;;;;3.97;1.08;;;;;;;17.12;32.36;101321.06;15682774;28;20045;-51
2023/05/01 09:16:08;;;;;;;2.63;0.80;;;;;;;18.46;31.93;101306.09;15682013;28;20067;-50
2023/05/01 09:23:42;;;;;;;;;;;;;;;18.70;32.01;101304.88;15681988;28;20121;-50
2023/05/01 09:31:22;;;;;;;1.40;0.50;;;;;;;18.45;30.60;101291.69;15669180;28;19928;-50
2023/05/01 09:38:56;;;;;;;0.93;0.63;;;;;;;18.84;31.41;101283.56;15677028;28;20049;-50
2023/05/01 09:46:42;;;;;;;1.20;0.57;;;;;;;18.77;31.17;101264.69;15686449;28;20545;-49
2023/05/01 09:54:19;;;;;;;1.00;0.52;;;;;;;19.13;30.74;101251.53;15678883;28;20064;-51
2023/05/01 10:01:53;;;;;;;0.50;0.30;;;;;;;18.93;31.16;101238.53;15680583;28;20071;-50
2023/05/01 10:09:31;;;;;;;0.93;0.68;;;;;;;19.79;30.62;101226.91;15678417;28;20045;-51
2023/05/01 10:17:17;;;;;;;0.55;0.30;;;;;;;18.58;30.60;101223.34;15675607;28;20119;-51
2023/05/01 10:24:52;;;;;;;2.05;0.90;;;;;;;19.20;31.74;101213.25;15676182;28;20072;-49
2023/05/01 10:32:24;;;;;;;1.73;0.73;;;;;;;19.34;30.90;101201.69;15597745;23;20085;-52
2023/05/01 10:39:58;;;;;;;0.73;0.52;;;;;;;20.03;29.80;101190.03;15521249;28;20103;-48
2023/05/01 10:47:47;;;;;;;0.50;0.47;;;;;;;19.92;29.31;101179.34;15510768;28;20099;-47
2023/05/01 10:55:35;;;;;;;4.63;1.52;;;;;;;19.78;31.23;101177.06;15511849;28;20133;-49
2023/05/01 11:03:36;;;;;;;1.77;0.90;;;;;;;18.72;31.55;101163.19;15520768;28;20046;-54
2023/05/01 11:11:50;;;;;;;1.20;0.63;;;;;;;19.16;31.48;101150.31;15505967;28;20057;-50
2023/05/01 11:19:47;;;;;;;1.30;0.93;;;;;;;20.10;29.28;101127.94;15489278;28;20164;-53
2023/05/01 11:27:22;;;;;;;3.17;1.00;;;;;;;19.94;29.14;101128.94;15486950;28;20039;-54
2023/05/01 11:34:55;;;;;;;1.30;0.70;;;;;;;21.41;29.02;101113.34;15505239;28;20054;-54
2023/05/01 11:42:29;;;;;;;1.98;0.93;;;;;;;21.01;28.28;101107.56;15511924;28;20042;-51
2023/05/01 11:50:01;;;;;;;1.52;0.95;;;;;;;21.84;27.95;101093.63;15521554;28;20469;-54
2023/05/01 11:57:47;;;;;;;1.80;1.25;;;;;;;20.98;30.10;101091.72;15503452;28;20506;-48
2023/05/01 12:05:22;;;;;;;4.05;1.45;;;;;;;20.95;29.03;101075.09;15509383;28;20343;-49
2023/05/01 12:12:56;;;;;;;2.60;1.13;;;;;;;21.74;29.30;101065.50;15461348;28;20068;-50
2023/05/01 12:20:40;;;;;;;1.98;1.13;;;;;;;20.56;29.35;101060.00;15481306;28;20045;-49
2023/05/01 12:28:17;;;;;;;0.82;0.65;;;;;;;21.34;28.54;101057.09;15495926;28;20042;-55
2023/05/01 12:35:50;;;;;;;1.85;1.00;;;;;;;21.14;29.28;101038.78;15484609;28;20041;-56
2023/05/01 12:43:37;;;;;;;3.13;1.30;;;;;;;21.13;29.90;101026.22;15497930;28;20112;-50
2023/05/01 12:51:26;;;;;;;2.03;1.10;;;;;;;20.79;29.57;101023.19;15499571;28;20423;-52
2023/05/01 12:59:27;;;;;;;1.50;0.88;;;;;;;21.75;28.44;101017.94;15494676;28;20046;-53
2023/05/01 13:07:19;;;;;;;2.53;1.30;;;;;;;21.88;28.28;101015.44;15488238;28;20120;-50
2023/05/01 13:15:07;;;;;;;1.85;1.38;;;;;;;21.73;27.94;101001.00;15533395;28;20034;-51
2023/05/01 13:23:16;;;;;;;1.92;1.30;;;;;;;22.14;26.66;101001.69;15489085;28;20118;-55
2023/05/01 13:30:53;;;;;;;1.42;0.95;;;;;;;21.29;28.15;100988.78;15520961;28;20049;-50
2023/05/01 13:38:26;;;;;;;4.65;1.27;;;;;;;21.74;27.91;100981.63;15503229;28;20034;-49
2023/05/01 13:46:00;;;;;;;2.03;0.75;;;;;;;21.12;28.96;100970.00;15525813;28;20218;-50
2023/05/01 13:53:33;;;;;;;3.88;1.33;;;;;;;20.21;29.85;100965.28;15526756;28;20124;-55
2023/05/01 14:01:14;;;;;;;;;;;;;;;21.04;30.30;100950.63;15504114;28;20038;-49
2023/05/01 14:08:48;;;;;;;3.75;1.40;;;;;;;20.69;29.53;100943.28;15516359;28;19928;-51
2023/05/01 14:16:24;;;;;;;8.43;1.63;;;;;;;20.41;29.11;100939.13;15508421;28;20038;-57
2023/05/01 14:23:57;;;;;;;5.85;1.77;;;;;;;20.66;30.94;100927.44;15523999;28;20121;-49
2023/05/01 14:31:31;;;;;;;1.83;1.13;;;;;;;20.52;30.92;100921.75;15473378;28;20579;-47
2023/05/01 14:39:04;;;;;;;2.90;1.73;;;;;;;20.36;29.97;100918.94;15502565;28;20050;-50
2023/05/01 14:46:45;;;;;;;3.65;1.40;;;;;;;20.45;29.02;100908.31;15503777;28;20076;-53
2023/05/01 14:54:18;;;;;;;1.88;1.05;;;;;;;20.70;29.13;100890.34;15521486;28;20390;-51
2023/05/01 15:01:53;;;;;;;3.10;1.42;;;;;;;19.75;30.75;100904.38;15496326;28;20057;-53
2023/05/01 15:09:26;;;;;;;5.70;1.23;;;;;;;20.22;29.87;100906.94;15485514;28;20515;-51
2023/05/01 15:17:00;;;;;;;;;;;;;;;20.54;30.75;100903.19;15509192;28;20064;-54
2023/05/01 15:24:32;;;;;;;2.92;0.90;;;;;;;20.23;31.88;100899.56;15521519;28;19929;-49
2023/05/01 15:32:07;;;;;;;2.05;1.10;;;;;;;20.13;30.88;100887.56;15508420;28;20042;-50
2023/05/01 15:39:39;;;;;;;1.55;0.90;;;;;;;20.24;30.73;100893.06;15525353;28;20046;-48
2023/05/01 15:47:15;;;;;;;1.48;0.57;;;;;;;20.58;30.20;100887.91;15477685;28;20098;-50
2023/05/01 15:54:53;;;;;;;5.75;1.13;;;;;;;20.36;31.45;100882.69;15510451;28;20105;-50
2023/05/01 16:02:31;;;;;;;2.80;1.02;;;;;;;19.98;32.88;100879.38;15480070;28;20811;-47
2023/05/01 16:10:04;;;;;;;3.83;0.52;;;;;;;19.97;34.16;100874.19;15503390;28;20104;-50
2023/05/01 16:17:43;;;;;;;6.22;1.23;;;;;;;19.61;33.50;100865.94;15512451;28;20137;-48
2023/05/01 16:25:18;;;;;;;1.40;1.00;;;;;;;19.99;32.37;100867.38;15501704;28;20129;-51
2023/05/01 16:32:52;;;;;;;1.50;0.88;;;;;;;19.75;34.24;100874.41;15549784;23;20545;-52
2023/05/01 16:40:25;;;;;;;2.83;1.48;;;;;;;19.66;34.46;100878.75;15560722;28;20469;-53
2023/05/01 16:47:59;;;;;;;;;;;;;;;19.29;34.61;100874.19;15545497;28;20046;-53
2023/05/01 16:55:32;;;;;;;1.08;0.95;;;;;;;19.37;34.69;100869.06;15558075;28;20486;-54
2023/05/01 17:03:06;;;;;;;2.17;1.33;;;;;;;19.32;34.41;100877.22;15574579;28;20479;-52
2023/05/01 17:10:40;;;;;;;1.65;1.02;;;;;;;19.23;35.24;100867.09;15581330;28;20041;-52
2023/05/01 17:18:14;;;;;;;2.88;0.90;;;;;;;19.38;33.35;100872.59;15559322;28;20501;-49
2023/05/01 17:25:46;;;;;;;1.83;0.75;;;;;;;18.88;33.56;100846.75;15557418;28;20503;-51
2023/05/01 17:33:20;;;;;;;3.28;1.27;;;;;;;19.57;33.62;100859.34;15556878;28;20042;-53
2023/05/01 17:40:55;;;;;;;2.28;1.10;;;;;;;19.74;37.80;100865.44;15546587;28;20065;-54
2023/05/01 17:48:29;;;;;;;3.83;1.40;;;;;;;19.46;39.82;100869.38;15554006;28;20511;-54
2023/05/01 17:56:01;;;;;;;12.63;1.48;;;;;;;18.85;40.35;100799.16;15555159;28;20042;-51
2023/05/01 18:03:35;;;;;;;5.20;1.48;;;;;;;18.88;41.29;100865.00;15553879;28;20046;-52
2023/05/01 18:11:08;;;;;;;4.80;1.40;;;;;;;18.72;40.44;100861.34;15554939;28;20449;-53
2023/05/01 18:18:42;;;;;;;4.53;1.15;;;;;;;18.28;41.93;100862.34;15551151;28;20038;-49
2023/05/01 18:26:18;;;;;;;2.50;1.30;;;;;;;18.16;41.48;100856.25;15537958;28;20037;-52
2023/05/01 18:33:51;;;;;;;2.78;1.85;;;;;;;17.80;43.05;100855.88;15547866;28;20057;-51
2023/05/01 18:41:25;;;;;;;7.53;1.75;;;;;;;17.64;44.77;100862.22;15558584;28;20050;-50
2023/05/01 18:49:00;;;;;;;4.15;1.95;;;;;;;17.09;46.25;100865.84;15543318;28;20884;-51
2023/05/01 18:56:32;;;;;;;3.38;2.10;;;;;;;17.26;45.17;100863.09;15548106;28;20046;-55
2023/05/01 19:04:06;;;;;;;3.13;1.50;;;;;;;16.39;46.36;100869.09;15548659;28;20096;-49
2023/05/01 19:11:39;;;;;;;4.20;1.67;;;;;;;16.87;45.78;100862.28;15562378;28;20300;-52
2023/05/01 19:19:13;;;;;;;4.30;2.07;;;;;;;16.67;47.63;100869.00;15537978;28;20050;-52
2023/05/01 19:26:45;;;;;;;4.05;2.40;;;;;;;16.48;47.49;100871.16;15542551;28;20519;-52
2023/05/01 19:34:20;;;;;;;3.27;1.70;;;;;;;16.28;49.26;100849.16;15545370;28;20057;-50
2023/05/01 19:41:54;;;;;;;4.80;2.25;;;;;;;16.29;49.26;100862.44;15548995;28;20546;-52
2023/05/01 19:49:28;;;;;;;7.35;1.90;;;;;;;15.77;51.79;100867.19;15549904;28;20107;-54
2023/05/01 19:57:01;;;;;;;4.68;2.17;;;;;;;15.97;49.89;100874.84;15549397;28;20122;-54
2023/05/01 20:04:35;;;;;;;6.83;2.37;;;;;;;15.70;52.64;100870.00;15542381;28;20073;-56
2023/05/01 20:12:08;;;;;;;2.42;1.73;;;;;;;15.77;49.87;100867.19;15542929;28;20537;-52
2023/05/01 20:19:42;;;;;;;5.10;1.83;;;;;;;15.61;50.94;100862.50;15560337;28;20045;-54
2023/05/01 20:27:15;;;;;;;5.72;1.63;;;;;;;15.67;50.19;100870.53;15528438;28;20053;-50
2023/05/01 20:34:49;;;;;;;;;;;;;;;15.43;53.23;100871.59;15522627;28;20462;-51
2023/05/01 20:42:22;;;;;;;2.10;1.40;;;;;;;15.05;53.95;100870.25;15537671;28;20023;-51
2023/05/01 20:49:56;;;;;;;6.57;2.50;;;;;;;15.14;53.45;100868.00;15555954;28;20057;-52
2023/05/01 20:57:28;;;;;;;6.65;2.15;;;;;;;14.95;53.91;100880.84;15552262;28;20050;-52
2023/05/01 21:05:02;;;;;;;2.90;1.40;;;;;;;15.11;53.38;100873.88;15550199;28;20141;-51
2023/05/01 21:12:35;;;;;;;4.82;2.53;;;;;;;15.16;52.57;100872.13;15555118;28;20132;-51
2023/05/01 21:20:14;;;;;;;2.93;1.77;;;;;;;15.18;53.46;100882.69;15555999;28;20116;-53
2023/05/01 21:27:46;;;;;;;2.67;2.15;;;;;;;15.24;53.13;100882.56;15555239;28;20134;-50
2023/05/01 21:35:21;;;;;;;2.97;2.10;;;;;;;15.09;52.73;100890.34;15555773;28;20050;-54
2023/05/01 21:42:54;;;;;;;6.10;2.47;;;;;;;14.67;55.00;100903.16;15555009;28;20041;-50
2023/05/01 21:50:32;;;;;;;3.90;1.42;;;;;;;14.47;55.40;100890.75;15554226;28;20052;-52
2023/05/01 21:58:04;;;;;;;7.28;1.60;;;;;;;14.66;55.26;100894.22;15537072;28;20038;-53
2023/05/01 22:05:40;;;;;;;4.50;2.07;;;;;;;14.74;53.88;100891.19;15537156;28;20030;-50
2023/05/01 22:13:13;;;;;;;2.97;1.55;;;;;;;14.62;54.27;100898.44;15553498;28;20510;-53
2023/05/01 22:20:47;;;;;;;6.03;2.10;;;;;;;14.34;52.63;100884.75;15534465;28;20050;-49
2023/05/01 22:28:20;;;;;;;3.33;1.75;;;;;;;13.99;52.03;100901.66;15534309;28;20046;-54
2023/05/01 22:35:54;;;;;;;5.30;2.63;;;;;;;14.02;49.97;100899.31;15553448;28;20053;-47
2023/05/01 22:43:26;;;;;;;5.60;2.50;;;;;;;14.20;46.28;100897.63;15551471;28;20045;-48
2023/05/01 22:51:00;;;;;;;1.97;1.43;;;;;;;14.34;45.71;100888.25;15552033;28;20108;-50
2023/05/01 22:58:33;;;;;;;6.57;1.70;;;;;;;14.36;45.38;100893.44;15530754;28;20587;-49
2023/05/01 23:06:07;;;;;;;2.80;1.30;;;;;;;14.30;44.71;100903.28;15548098;28;20140;-46
2023/05/01 23:13:43;;;;;;;3.72;1.67;;;;;;;14.54;45.17;100901.47;15551288;28;20472;-50
2023/05/01 23:21:19;;;;;;;3.50;1.92;;;;;;;14.66;45.53;100902.34;15534264;28;20042;-46
2023/05/01 23:28:53;;;;;;;2.25;1.52;;;;;;;14.27;45.98;100909.97;15533291;28;20046;-48
2023/05/01 23:36:27;;;;;;;3.10;1.25;;;;;;;14.21;45.70;100907.34;15531930;28;20149;-49
2023/05/01 23:44:00;;;;;;;1.50;1.30;;;;;;;14.02;46.70;100912.00;15549938;28;20176;-49
2023/05/01 23:51:34;;;;;;;1.40;0.97;;;;;;;13.94;46.13;100902.34;15549134;28;20069;-49
2023/05/01 23:59:07;;;;;;;2.80;1.48;;;;;;;14.16;46.48;100897.25;15548132;28;20048;-51
